Disclaimer   
PNR Super Search
 ♦ 
×
HashTag:
PNR Number:
Train Type:
Train:
From Station:
To Station:
Train Class:
2SSLCCEx3AFC2A1A3E
WL Quota:
DOJ From:
DOJ To:
Blogger:
Traveller:
Predictor:
Prediction:
WLRACConf
Stamper:
Final:
WLRACConfVoidQ-ConfUnStamped
Status:
Reaction:

Search
  Go  
 
Sun Feb 1, 2015 18:46:21 ISTHomeTrainsΣChainsAtlasPNRForumGalleryNewsFAQTripsMembersLoginFeedback
Sun Feb 1, 2015 18:46:21 IST
Post PNRPNR StatusModify Search

Ticket PNR Status Inquiry - PNR: 223-xxxxxxx (E-Ticket)

OLD STATUS

Status Last Updated on: Jun 19 2012 (7:25PM) IST

Date of Journey: Tue Jun 19, 2012   Class: AC 3-tier - 3A   (Total Seats available for this Class/Quota: Avbl >6)
Passenger 1: B1,11 (Booking Status: W/L 5,RLGN)
Passenger 2: B2,12 (Booking Status: W/L 6,RLGN)
Passenger 3: Can/Mod (Booking Status: W/L 7,RLGN)
Chart PREPARED

Himsagar Express/16318

Travel Time: 47h 31m    33 halts    Distance: 2737 km    Avg Speed: 57 km/hr
Type: Mail/Express
Zone: SR/Southern
Departs @ 10:24 (Avg 2h 11m late)
Platform# ???
  T    
JIND/Jind Junction 
Arrives @ 09:55 +2 nights (Avg 4h 57m late)
Platform# 5
    T  
CBE/Coimbatore Main Junction 

33 halts. 391 intermediate Stations between Jind Junction and Coimbatore Main Junction

Show ALL intermediate Stations  Show Old Time-Table

#TrkCodeStation NameX/OArrivesAvgDepartsAvgHaltPFDay#KmSpeedElevZoneAddress
1/--/JATJammu Tawi  -23:45+1:4421-464.665337mNRJammu 180002, Jammu and Kashmir
2/--/SMBXSamba  00:15+1:5300:17+1:532m12-432.064365mNRDist. Samba, Jammu and Kashmir
3/--/KTHUKathua  00:58+1:5701:00+2:002m22-388.350396mNRdistt. kathua, Jammu and Kashmir
4/--/PTKCPathankot Cantt  01:28+2:0901:33+2:085m12-365.257328mNRPathankot By Pass Ph:0186-2251594, Punjab
5/--/MEXMukerian  02:15+2:0602:17+2:062m12-325.353257mNRMukerian distt. hosiharpur, Punjab
6/--/DZADasuyaX  02:34+2:0702:36+2:072m12-310.358251mNRDasuya distt. hoshiarpur, Punjab
7/--/TDOTanda Urmar  02:52+2:0802:54+2:092m22-294.962239mNRUrmar Tanda, Punjab
8/--/JRCJalandhar Cantt. JunctionX  03:35+2:1203:40+2:135m32-252.754239mNRNear Rama Mandi, Punjab
9/==/PGWPhagwara Junction  03:58+2:1404:00+2:142m12-236.475245mNRPhagwara, Punjab
10/==/PHRPhillaur JunctionX  04:18+2:2104:20+2:212m12-213.820246mNRPhillaur, Punjab
11/==/LDHLudhiana JunctionX  05:00+1:5905:15+2:0215m52-200.763246mNRLudhiana 141001, Punjab
12|--|QRPKila Raipur  05:32+2:2405:34+2:242m12-183.046262mNRDelhon Pakhowal Rd, Punjab
13|--|AHHAhmadgarh  05:44+2:2705:45+2:381m12-175.341256mNRAhmedgarh, Punjab
14|--|METMalerkotla  06:14+2:3606:15+2:401m12-155.553248mNRMalerkotla., Punjab
15|--|DUIDhuri JunctionX  06:34+2:4606:35+2:531m--2-138.724248mNRDhuri, Punjab
16|--|SAGSangrurX  07:15+2:3707:17+2:392m12-122.635239mNRSangrur, Punjab
17|--|SFMSunam  07:39+2:3207:41+2:322m12-109.871235mNRSunam, Punjab
18|--|LHALehra Gaga  07:59+2:5708:01+2:572m12-88.519227mNRSangrur, Punjab
19|-=|JHLJakhal Junction  08:55+2:0809:00+2:115m--2-71.667225mNRJakhal, Haryana
20|==|TUNTohana  09:11+2:1509:13+2:142m--2-59.461232mNRTohana, Haryana
21|==|NRWNarwana JunctionX  09:38+2:1409:40+2:142m--2-33.965235mNRKKDE, Haryana
22|==|UCAUchana  09:54+2:1409:56+2:142m--2-18.758225mNRDistrict Jind, Haryana
23|==|BZOBarsola  10:06+2:1310:08+2:132m--2-9.139224mNRDistrict Jind, Haryana
24|==|JINDJind Junction»X  10:22+2:1010:24+2:112m--20.064222mNRJind 126102, Haryana
25|==|JNAJulana  10:48+2:2910:50+2:292m--225.772226mNRJulana, Haryana
26|==|ROKRohtak Junction  11:16+2:2211:18+2:232m--257.169220mNRRohtak, Haryana
27/==/BGZBahadurgarh  11:53+2:4611:55+2:462m--297.429220mNRBahadurgarh, Haryana
28/==/SSBShakur Basti  12:36+2:1212:38+2:132m--2117.313216mNRPitampura, Delhi NCT
29/==/NDLSNew DelhiX13:30+2:4114:15+2:4645m72128.228215mNRNew Delhi 110002, Delhi NCT
30/==/NZMDelhi Hazrat NizamuddinX  14:31+2:4814:33+2:492m42135.542209mNRNew Delhi 110013, Delhi NCT
31/==/FDBFaridabad  15:03+2:3515:05+2:362m42156.349206mNRold Faridabad, Haryana
32/==/AGCAgra Cantt.X  18:30+2:1218:35+2:155m12323.296174mNCRAgra, Uttar Pradesh
33/==/DHODholpur Junction  19:08+2:2019:10+2:282m22375.863177mNCRDholpur, Rajasthan
34/==/GWLGwalior JunctionX  20:12+2:5420:15+2:553m12441.273214mNCRGwalior, Madhya Pradesh
35/==/JHSJhansi Junction  21:35+3:4321:45+3:4710m--2538.974259mNCRJhansi, Uttar Pradesh
36/==/BPLBhopal JunctionX  01:40+5:0001:50+4:5810m13830.755497mWCRBhopal, Madhya Pradesh
37/==/ETItarsi Junction  03:30+3:5003:35+3:545m--3922.460329mWCRItarsi 461111, Madhya Pradesh
38/==/NGPNagpur JunctionX  08:30+4:4108:40+4:4410m231219.678314mCRNagpur 440001, Maharashtra
39/==/SEGMSewagram Junction  09:39+5:0709:41+5:072m--31295.873279mCRWardha, Maharashtra
40/==/CDChandrapur MaharashtraX  11:18+5:0411:20+5:042m--31414.424194mCRChandrapur 442401, Maharashtra
41/==/BPQBalharshah JunctionX  11:55+4:2312:10+4:1715m131428.284188mCRBallarpur. Ph : 07172 - 240341, Maharashtra
42/==/RDMRamagundam  13:51+4:3413:52+4:341m231570.063170mSCRKarimnagar Dist. Ph : 08728 - 255237, Telangana
43/==/WLWarangal  15:28+5:1815:33+5:165m131671.271271mSCRWarangal., Telangana
44/==/KMTKhammamX  17:04+5:0917:06+5:082m131778.751118mSCRKhammam 507001, Telangana
45/==/BZAVijayawada Junction  19:05+4:5419:20+4:5315m631879.17224mSCRVijayawada 520001, Andhra Pradesh
46/==/TELTenali JunctionX  19:46+4:3119:48+4:312m--31910.37716mSCRTel: 08644-227834, Andhra Pradesh
47/==/OGLOngoleX  21:11+4:3121:13+4:312m332017.49512mSCROngole, Andhra Pradesh
48/==/NLRNellore  22:27+7:3122:29+7:312m332134.13221mSCRNellore, Andhra Pradesh
49/==/GDRGudur Junction  23:41+4:2323:43+4:232m132172.66919mSCRGudur, Andhra Pradesh
50/==/RURenigunta JunctionX  00:55+4:4601:05+4:4810m--42256.040113mSCRChittoor District, Andhra Pradesh
51/==/TPTYTirupati Main  01:20+4:5901:22+5:002m342265.961150mSCRChittoor Distt, Andhra Pradesh
52/--/CTOChittoorX  02:33+5:0902:35+5:092m242337.827305mSCR517001., Andhra Pradesh
53/--/KPDKatpadi JunctionX  03:48+4:2303:50+4:242m342370.869213mSRVellore 632007, Tamil Nadu
54/==/JTJJolarpettai Junction  05:03+4:2305:05+4:242m142454.780405mSRJolarpettai, Tamil Nadu
55/==/SASalem JunctionX  06:35+4:5706:40+4:575m--42574.943283mSRSalem, Tamil Nadu
56/==/EDErode JunctionX08:05+4:2508:15+4:5810m342636.379175mSRErode ph.no: 0424-2256111, Tamil Nadu
57/==/TUPTiruppurX  08:53+5:1108:55+5:112m142686.550305mSRTiruppur. Ph:0421-2200450, Tamil Nadu
58/==/CBECoimbatore Main Junction•  09:55+4:5710:00+4:565m542737.044416mSRCoimbatore 641001, Tamil Nadu
59/==/PGTPalakkad JunctionX  11:15+4:4711:20+4:465m--42792.28384mSRPalghat Tel: 0491 2555231, Kerala
60/==/OTPOttappalam  11:43+5:0811:45+5:082m--42824.04930mSROttapalam, Kerala
61/==/TCRThrissur  12:39+4:4612:41+4:472m142868.1706mSRThrissur Tel: 0487 2423150, Kerala
62/==/AWYAluvaX  13:28+4:4713:30+4:472m142922.73412mSRPh: 0484-2624141, Kerala
63/==/ERNErnakulam Town (North)  14:00+4:5114:05+4:515m242939.5469mSRTel: 0484 2395198, Kerala
64%==%KTYMKottayamX  15:23+4:4615:25+4:472m--42999.56715mSRTel: 0481 2563535, Kerala
65%==%TRVLTiruvalla  15:48+4:1615:50+4:182m--43025.26827mSRPh: 0469-2601314, Kerala
66/==%CNGRChengannurX  15:58+4:2516:00+4:252m143034.3616mSRPh: 0479-2452340, Kerala
67/==/KYJKayamkulam JunctionX  16:20+4:2716:22+4:272m--43054.54611mSRAlappuzha Ph;0479-2442042, Kerala
68/==/QLNKollam JunctionX  17:15+5:0517:20+5:055m143095.37616mSRKollam 0474-2746194, Kerala
69/==/TVPThiruvananthapuram PettahO  18:09+2218:10+221m--43157.5318mSRTrivandrum Ph: 04712470181, Kerala
70/==/TVCTrivandrum CentralX  19:00+4:1019:05+4:115m--43159.95812mSRThiruvananthapuram 695001, Kerala
71/--/KZTKulitturai  19:44+5:1819:45+5:181m--43197.92829mSRMarthandam, Tamil Nadu
72/--/NCJNagercoil Junction  20:55+3:4421:00+3:435m243231.03122mSRNagercoil-629002, Tamil Nadu
73/--/CAPEKanniyakumari  21:30+3:35-343246.5-38mSRKanyakumari, Tamil Nadu
Scroll to Top
Scroll to Bottom


Go to Mobile site